sensor_id;sensor_type;location;lat;lon;timestamp;pressure;altitude;pressure_sealevel;temperature
79228;BMP280;68658;46.174;11.254;2023-06-22T00:00:52;93130.16;;;22.27
79228;BMP280;68658;46.174;11.254;2023-06-22T00:03:19;93117.81;;;22.24
79228;BMP280;68658;46.174;11.254;2023-06-22T00:05:48;93126.97;;;22.21
79228;BMP280;68658;46.174;11.254;2023-06-22T00:08:17;93133.22;;;22.24
79228;BMP280;68658;46.174;11.254;2023-06-22T00:10:43;93143.34;;;22.08
79228;BMP280;68658;46.174;11.254;2023-06-22T00:13:10;93131.84;;;22.15
79228;BMP280;68658;46.174;11.254;2023-06-22T00:15:36;93144.25;;;22.03
79228;BMP280;68658;46.174;11.254;2023-06-22T00:18:03;93141.97;;;21.92
79228;BMP280;68658;46.174;11.254;2023-06-22T00:20:28;93145.09;;;21.67
79228;BMP280;68658;46.174;11.254;2023-06-22T00:22:55;93141.69;;;21.66
79228;BMP280;68658;46.174;11.254;2023-06-22T00:25:21;93128.22;;;21.74
79228;BMP280;68658;46.174;11.254;2023-06-22T00:27:47;93136.00;;;21.40
79228;BMP280;68658;46.174;11.254;2023-06-22T00:30:13;93144.41;;;21.29
79228;BMP280;68658;46.174;11.254;2023-06-22T00:32:39;93140.81;;;21.49
79228;BMP280;68658;46.174;11.254;2023-06-22T00:35:04;93138.13;;;21.64
79228;BMP280;68658;46.174;11.254;2023-06-22T00:37:30;93131.28;;;21.78
79228;BMP280;68658;46.174;11.254;2023-06-22T00:39:56;93135.03;;;21.75
79228;BMP280;68658;46.174;11.254;2023-06-22T00:42:22;93131.84;;;21.69
79228;BMP280;68658;46.174;11.254;2023-06-22T00:44:47;93122.72;;;21.49
79228;BMP280;68658;46.174;11.254;2023-06-22T00:47:14;93126.00;;;21.33
79228;BMP280;68658;46.174;11.254;2023-06-22T00:49:41;93124.19;;;21.43
79228;BMP280;68658;46.174;11.254;2023-06-22T00:52:06;93126.31;;;21.59
79228;BMP280;68658;46.174;11.254;2023-06-22T00:54:40;93123.59;;;21.67
79228;BMP280;68658;46.174;11.254;2023-06-22T00:57:13;93126.97;;;21.75
79228;BMP280;68658;46.174;11.254;2023-06-22T00:59:43;93127.53;;;21.73
79228;BMP280;68658;46.174;11.254;2023-06-22T01:02:09;93128.06;;;21.72
79228;BMP280;68658;46.174;11.254;2023-06-22T01:04:35;93126.63;;;21.71
79228;BMP280;68658;46.174;11.254;2023-06-22T01:10:04;93120.22;;;21.59
79228;BMP280;68658;46.174;11.254;2023-06-22T01:12:35;93124.53;;;21.47
79228;BMP280;68658;46.174;11.254;2023-06-22T01:15:18;93120.22;;;21.51
79228;BMP280;68658;46.174;11.254;2023-06-22T01:17:48;93119.16;;;21.47
79228;BMP280;68658;46.174;11.254;2023-06-22T01:20:15;93117.53;;;21.44
79228;BMP280;68658;46.174;11.254;2023-06-22T01:25:30;93119.66;;;21.53
79228;BMP280;68658;46.174;11.254;2023-06-22T01:30:28;93123.13;;;21.38
79228;BMP280;68658;46.174;11.254;2023-06-22T01:32:57;93119.38;;;21.34
79228;BMP280;68658;46.174;11.254;2023-06-22T01:35:23;93115.25;;;21.25
79228;BMP280;68658;46.174;11.254;2023-06-22T01:37:50;93112.38;;;21.31
79228;BMP280;68658;46.174;11.254;2023-06-22T01:40:16;93119.56;;;21.21
79228;BMP280;68658;46.174;11.254;2023-06-22T01:42:42;93122.78;;;21.27
79228;BMP280;68658;46.174;11.254;2023-06-22T01:45:10;93124.22;;;21.28
79228;BMP280;68658;46.174;11.254;2023-06-22T01:47:39;93121.53;;;21.28
79228;BMP280;68658;46.174;11.254;2023-06-22T01:50:05;93122.59;;;21.25
79228;BMP280;68658;46.174;11.254;2023-06-22T01:52:31;93130.13;;;21.19
79228;BMP280;68658;46.174;11.254;2023-06-22T01:54:59;93121.38;;;21.11
79228;BMP280;68658;46.174;11.254;2023-06-22T01:57:25;93122.44;;;21.08
79228;BMP280;68658;46.174;11.254;2023-06-22T02:02:22;93123.69;;;21.00
79228;BMP280;68658;46.174;11.254;2023-06-22T02:04:59;93129.59;;;20.98
79228;BMP280;68658;46.174;11.254;2023-06-22T02:07:31;93126.94;;;20.98
79228;BMP280;68658;46.174;11.254;2023-06-22T02:09:59;93127.09;;;21.00
79228;BMP280;68658;46.174;11.254;2023-06-22T02:12:25;93131.38;;;21.03
79228;BMP280;68658;46.174;11.254;2023-06-22T02:14:53;93128.16;;;21.04
79228;BMP280;68658;46.174;11.254;2023-06-22T02:17:19;93130.69;;;20.95
79228;BMP280;68658;46.174;11.254;2023-06-22T02:19:44;93138.72;;;20.88
79228;BMP280;68658;46.174;11.254;2023-06-22T02:22:10;93139.59;;;20.83
79228;BMP280;68658;46.174;11.254;2023-06-22T02:24:36;93138.72;;;20.88
79228;BMP280;68658;46.174;11.254;2023-06-22T02:27:02;93142.66;;;20.94
79228;BMP280;68658;46.174;11.254;2023-06-22T02:29:30;93143.91;;;20.93
79228;BMP280;68658;46.174;11.254;2023-06-22T02:31:56;93136.56;;;21.01
79228;BMP280;68658;46.174;11.254;2023-06-22T02:34:21;93140.31;;;21.05
79228;BMP280;68658;46.174;11.254;2023-06-22T02:36:48;93139.63;;;21.05
79228;BMP280;68658;46.174;11.254;2023-06-22T02:39:23;93138.13;;;20.67
79228;BMP280;68658;46.174;11.254;2023-06-22T02:41:50;93152.97;;;20.60
79228;BMP280;68658;46.174;11.254;2023-06-22T02:44:15;93142.78;;;20.74
79228;BMP280;68658;46.174;11.254;2023-06-22T02:46:41;93140.34;;;20.83
79228;BMP280;68658;46.174;11.254;2023-06-22T02:49:07;93138.16;;;20.74
79228;BMP280;68658;46.174;11.254;2023-06-22T02:51:38;93143.69;;;20.69
79228;BMP280;68658;46.174;11.254;2023-06-22T02:54:05;93146.16;;;20.52
79228;BMP280;68658;46.174;11.254;2023-06-22T02:56:31;93153.31;;;20.49
79228;BMP280;68658;46.174;11.254;2023-06-22T02:58:56;93154.19;;;20.52
79228;BMP280;68658;46.174;11.254;2023-06-22T03:01:27;93154.19;;;20.52
79228;BMP280;68658;46.174;11.254;2023-06-22T03:03:53;93158.13;;;20.43
79228;BMP280;68658;46.174;11.254;2023-06-22T03:06:20;93151.44;;;20.22
79228;BMP280;68658;46.174;11.254;2023-06-22T03:08:49;93150.25;;;20.30
79228;BMP280;68658;46.174;11.254;2023-06-22T03:11:15;93150.41;;;20.32
79228;BMP280;68658;46.174;11.254;2023-06-22T03:13:41;93152.38;;;20.39
79228;BMP280;68658;46.174;11.254;2023-06-22T03:16:06;93147.41;;;20.51
79228;BMP280;68658;46.174;11.254;2023-06-22T03:18:32;93144.94;;;20.60
79228;BMP280;68658;46.174;11.254;2023-06-22T03:20:57;93142.25;;;20.60
79228;BMP280;68658;46.174;11.254;2023-06-22T03:23:23;93157.25;;;20.63
79228;BMP280;68658;46.174;11.254;2023-06-22T03:25:48;93156.38;;;20.68
79228;BMP280;68658;46.174;11.254;2023-06-22T03:28:13;93154.25;;;20.74
79228;BMP280;68658;46.174;11.254;2023-06-22T03:30:39;93162.28;;;20.74
79228;BMP280;68658;46.174;11.254;2023-06-22T03:33:04;93161.56;;;20.66
79228;BMP280;68658;46.174;11.254;2023-06-22T03:35:30;93163.50;;;20.58
79228;BMP280;68658;46.174;11.254;2023-06-22T03:37:55;93164.03;;;20.49
79228;BMP280;68658;46.174;11.254;2023-06-22T03:40:20;93164.22;;;20.51
79228;BMP280;68658;46.174;11.254;2023-06-22T03:42:46;93167.44;;;20.57
79228;BMP280;68658;46.174;11.254;2023-06-22T03:45:11;93168.69;;;20.56
79228;BMP280;68658;46.174;11.254;2023-06-22T03:47:37;93164.25;;;20.66
79228;BMP280;68658;46.174;11.254;2023-06-22T03:50:02;93167.97;;;20.48
79228;BMP280;68658;46.174;11.254;2023-06-22T03:52:29;93159.22;;;20.55
79228;BMP280;68658;46.174;11.254;2023-06-22T03:54:55;93163.00;;;20.67
79228;BMP280;68658;46.174;11.254;2023-06-22T03:57:20;93156.38;;;20.61
79228;BMP280;68658;46.174;11.254;2023-06-22T03:59:46;93169.41;;;20.57
79228;BMP280;68658;46.174;11.254;2023-06-22T04:02:11;93155.63;;;20.45
79228;BMP280;68658;46.174;11.254;2023-06-22T04:04:37;93158.84;;;20.51
79228;BMP280;68658;46.174;11.254;2023-06-22T04:07:04;93151.72;;;20.61
79228;BMP280;68658;46.174;11.254;2023-06-22T04:09:29;93149.94;;;20.64
79228;BMP280;68658;46.174;11.254;2023-06-22T04:11:55;93150.28;;;20.68
79228;BMP280;68658;46.174;11.254;2023-06-22T04:14:20;93151.38;;;20.72
79228;BMP280;68658;46.174;11.254;2023-06-22T04:16:46;93153.88;;;20.70
79228;BMP280;68658;46.174;11.254;2023-06-22T04:19:11;93144.56;;;20.56
79228;BMP280;68658;46.174;11.254;2023-06-22T04:21:42;93151.75;;;20.76
79228;BMP280;68658;46.174;11.254;2023-06-22T04:24:09;93154.44;;;20.76
79228;BMP280;68658;46.174;11.254;2023-06-22T04:26:35;93161.09;;;20.90
79228;BMP280;68658;46.174;11.254;2023-06-22T04:29:03;93158.34;;;20.68
79228;BMP280;68658;46.174;11.254;2023-06-22T04:31:34;93148.50;;;20.70
79228;BMP280;68658;46.174;11.254;2023-06-22T04:34:03;93148.50;;;20.70
79228;BMP280;68658;46.174;11.254;2023-06-22T04:36:39;93146.91;;;20.67
79228;BMP280;68658;46.174;11.254;2023-06-22T04:41:32;93152.06;;;20.58
79228;BMP280;68658;46.174;11.254;2023-06-22T04:44:07;93150.09;;;20.43
79228;BMP280;68658;46.174;11.254;2023-06-22T04:46:33;93139.56;;;20.45
79228;BMP280;68658;46.174;11.254;2023-06-22T04:49:04;93146.00;;;20.50
79228;BMP280;68658;46.174;11.254;2023-06-22T04:51:32;93141.88;;;20.56
79228;BMP280;68658;46.174;11.254;2023-06-22T04:53:57;93137.75;;;20.48
79228;BMP280;68658;46.174;11.254;2023-06-22T04:56:26;93145.28;;;20.64
79228;BMP280;68658;46.174;11.254;2023-06-22T04:58:53;93148.53;;;20.85
79228;BMP280;68658;46.174;11.254;2023-06-22T05:01:21;93150.50;;;20.77
79228;BMP280;68658;46.174;11.254;2023-06-22T05:03:48;93147.47;;;20.81
79228;BMP280;68658;46.174;11.254;2023-06-22T05:06:13;93146.22;;;20.82
79228;BMP280;68658;46.174;11.254;2023-06-22T05:08:40;93146.06;;;20.87
79228;BMP280;68658;46.174;11.254;2023-06-22T05:11:05;93141.41;;;20.80
79228;BMP280;68658;46.174;11.254;2023-06-22T05:13:32;93139.25;;;21.01
79228;BMP280;68658;46.174;11.254;2023-06-22T05:15:58;93144.97;;;21.12
79228;BMP280;68658;46.174;11.254;2023-06-22T05:18:30;93143.88;;;21.23
79228;BMP280;68658;46.174;11.254;2023-06-22T05:20:56;93136.00;;;21.40
79228;BMP280;68658;46.174;11.254;2023-06-22T05:23:22;93131.31;;;21.48
79228;BMP280;68658;46.174;11.254;2023-06-22T05:25:47;93135.25;;;21.47
79228;BMP280;68658;46.174;11.254;2023-06-22T05:28:13;93145.09;;;21.52
79228;BMP280;68658;46.174;11.254;2023-06-22T05:30:39;93147.44;;;21.48
79228;BMP280;68658;46.174;11.254;2023-06-22T05:33:04;93150.50;;;21.44
79228;BMP280;68658;46.174;11.254;2023-06-22T05:35:30;93154.56;;;21.53
79228;BMP280;68658;46.174;11.254;2023-06-22T05:37:56;93145.47;;;21.56
79228;BMP280;68658;46.174;11.254;2023-06-22T05:40:21;93142.06;;;21.63
79228;BMP280;68658;46.174;11.254;2023-06-22T05:42:47;93139.72;;;21.67
79228;BMP280;68658;46.174;11.254;2023-06-22T05:45:13;93134.84;;;21.80
79228;BMP280;68658;46.174;11.254;2023-06-22T05:47:38;93142.75;;;21.63
79228;BMP280;68658;46.174;11.254;2023-06-22T05:50:07;93148.13;;;21.71
79228;BMP280;68658;46.174;11.254;2023-06-22T05:52:34;93139.88;;;21.76
79228;BMP280;68658;46.174;11.254;2023-06-22T05:55:00;93144.06;;;21.25
79228;BMP280;68658;46.174;11.254;2023-06-22T05:57:25;93151.91;;;21.38
79228;BMP280;68658;46.174;11.254;2023-06-22T05:59:51;93149.19;;;21.75
79228;BMP280;68658;46.174;11.254;2023-06-22T06:02:16;93150.22;;;21.94
79228;BMP280;68658;46.174;11.254;2023-06-22T06:04:42;93146.91;;;22.11
79228;BMP280;68658;46.174;11.254;2023-06-22T06:07:07;93150.94;;;21.87
79228;BMP280;68658;46.174;11.254;2023-06-22T06:09:33;93151.94;;;22.07
79228;BMP280;68658;46.174;11.254;2023-06-22T06:11:58;93143.28;;;22.23
79228;BMP280;68658;46.174;11.254;2023-06-22T06:14:24;93129.28;;;22.32
79228;BMP280;68658;46.174;11.254;2023-06-22T06:16:49;93129.66;;;22.21
79228;BMP280;68658;46.174;11.254;2023-06-22T06:19:15;93113.84;;;22.33
79228;BMP280;68658;46.174;11.254;2023-06-22T06:21:40;93111.66;;;22.39
79228;BMP280;68658;46.174;11.254;2023-06-22T06:24:06;93115.09;;;22.39
79228;BMP280;68658;46.174;11.254;2023-06-22T06:26:31;93116.41;;;22.23
79228;BMP280;68658;46.174;11.254;2023-06-22T06:28:59;93113.69;;;22.23
79228;BMP280;68658;46.174;11.254;2023-06-22T06:31:25;93116.56;;;22.25
79228;BMP280;68658;46.174;11.254;2023-06-22T06:33:54;93114.84;;;22.05
79228;BMP280;68658;46.174;11.254;2023-06-22T06:36:19;93124.41;;;21.91
79228;BMP280;68658;46.174;11.254;2023-06-22T06:38:48;93125.50;;;21.88
79228;BMP280;68658;46.174;11.254;2023-06-22T06:41:15;93133.28;;;22.09
79228;BMP280;68658;46.174;11.254;2023-06-22T06:43:40;93129.91;;;22.08
79228;BMP280;68658;46.174;11.254;2023-06-22T06:46:08;93134.78;;;21.95
79228;BMP280;68658;46.174;11.254;2023-06-22T06:48:34;93125.41;;;22.11
79228;BMP280;68658;46.174;11.254;2023-06-22T06:50:59;93132.22;;;22.12
79228;BMP280;68658;46.174;11.254;2023-06-22T06:53:25;93120.84;;;22.36
79228;BMP280;68658;46.174;11.254;2023-06-22T06:55:50;93125.97;;;22.41
79228;BMP280;68658;46.174;11.254;2023-06-22T06:58:15;93118.09;;;22.43
79228;BMP280;68658;46.174;11.254;2023-06-22T07:00:41;93116.19;;;22.60
79228;BMP280;68658;46.174;11.254;2023-06-22T07:03:08;93119.91;;;22.65
79228;BMP280;68658;46.174;11.254;2023-06-22T07:05:34;93121.06;;;22.79
79228;BMP280;68658;46.174;11.254;2023-06-22T07:08:00;93118.44;;;22.96
79228;BMP280;68658;46.174;11.254;2023-06-22T07:10:26;93110.28;;;23.11
79228;BMP280;68658;46.174;11.254;2023-06-22T07:12:52;93116.22;;;23.09
79228;BMP280;68658;46.174;11.254;2023-06-22T07:15:18;93118.91;;;23.09
79228;BMP280;68658;46.174;11.254;2023-06-22T07:17:44;93123.91;;;23.13
79228;BMP280;68658;46.174;11.254;2023-06-22T07:20:12;93121.53;;;23.17
79228;BMP280;68658;46.174;11.254;2023-06-22T07:22:42;93116.34;;;23.36
79228;BMP280;68658;46.174;11.254;2023-06-22T07:25:08;93114.53;;;23.55
79228;BMP280;68658;46.174;11.254;2023-06-22T07:27:45;93105.13;;;23.80
79228;BMP280;68658;46.174;11.254;2023-06-22T07:30:11;93108.75;;;23.92
79228;BMP280;68658;46.174;11.254;2023-06-22T07:32:40;93099.47;;;24.03
79228;BMP280;68658;46.174;11.254;2023-06-22T07:35:06;93103.53;;;23.94
79228;BMP280;68658;46.174;11.254;2023-06-22T07:37:32;93092.81;;;24.04
79228;BMP280;68658;46.174;11.254;2023-06-22T07:40:02;93090.25;;;24.06
79228;BMP280;68658;46.174;11.254;2023-06-22T07:42:31;93093.19;;;24.17
79228;BMP280;68658;46.174;11.254;2023-06-22T07:44:58;93085.13;;;24.26
79228;BMP280;68658;46.174;11.254;2023-06-22T07:47:24;93087.13;;;24.26
79228;BMP280;68658;46.174;11.254;2023-06-22T07:49:51;93076.19;;;24.24
79228;BMP280;68658;46.174;11.254;2023-06-22T07:52:20;93072.88;;;24.16
79228;BMP280;68658;46.174;11.254;2023-06-22T07:54:49;93069.53;;;24.25
79228;BMP280;68658;46.174;11.254;2023-06-22T07:57:14;93076.75;;;24.22
79228;BMP280;68658;46.174;11.254;2023-06-22T07:59:40;93072.69;;;24.31
79228;BMP280;68658;46.174;11.254;2023-06-22T08:02:08;93066.91;;;24.17
79228;BMP280;68658;46.174;11.254;2023-06-22T08:04:34;93067.47;;;24.16
79228;BMP280;68658;46.174;11.254;2023-06-22T08:07:01;93073.03;;;24.18
79228;BMP280;68658;46.174;11.254;2023-06-22T08:09:33;93074.56;;;24.38
79228;BMP280;68658;46.174;11.254;2023-06-22T08:11:59;93066.13;;;24.51
79228;BMP280;68658;46.174;11.254;2023-06-22T08:14:28;93071.28;;;24.66
79228;BMP280;68658;46.174;11.254;2023-06-22T08:16:54;93068.53;;;24.83
79228;BMP280;68658;46.174;11.254;2023-06-22T08:19:20;93076.00;;;24.75
79228;BMP280;68658;46.174;11.254;2023-06-22T08:21:46;93059.66;;;24.73
79228;BMP280;68658;46.174;11.254;2023-06-22T08:24:11;93067.56;;;24.97
79228;BMP280;68658;46.174;11.254;2023-06-22T08:26:37;93057.41;;;25.14
79228;BMP280;68658;46.174;11.254;2023-06-22T08:29:05;93055.00;;;25.18
79228;BMP280;68658;46.174;11.254;2023-06-22T08:31:31;93046.16;;;25.08
79228;BMP280;68658;46.174;11.254;2023-06-22T08:34:00;93048.53;;;25.04
79228;BMP280;68658;46.174;11.254;2023-06-22T08:36:25;93059.09;;;25.10
79228;BMP280;68658;46.174;11.254;2023-06-22T08:38:54;93049.47;;;24.81
79228;BMP280;68658;46.174;11.254;2023-06-22T08:41:23;93057.78;;;25.01
79228;BMP280;68658;46.174;11.254;2023-06-22T08:43:48;93055.53;;;25.07
79228;BMP280;68658;46.174;11.254;2023-06-22T08:46:13;93057.25;;;25.12
79228;BMP280;68658;46.174;11.254;2023-06-22T08:48:39;93054.88;;;25.16
79228;BMP280;68658;46.174;11.254;2023-06-22T08:51:05;93059.97;;;25.12
79228;BMP280;68658;46.174;11.254;2023-06-22T08:53:30;93053.03;;;25.28
79228;BMP280;68658;46.174;11.254;2023-06-22T08:55:56;93053.03;;;25.28
79228;BMP280;68658;46.174;11.254;2023-06-22T08:58:21;93049.75;;;25.30
79228;BMP280;68658;46.174;11.254;2023-06-22T09:00:48;93046.34;;;25.29
79228;BMP280;68658;46.174;11.254;2023-06-22T09:03:14;93043.91;;;25.33
79228;BMP280;68658;46.174;11.254;2023-06-22T09:05:40;93042.94;;;25.38
79228;BMP280;68658;46.174;11.254;2023-06-22T09:08:05;93045.69;;;25.76
79228;BMP280;68658;46.174;11.254;2023-06-22T09:10:31;93041.94;;;26.00
79228;BMP280;68658;46.174;11.254;2023-06-22T09:12:57;93041.91;;;26.19
79228;BMP280;68658;46.174;11.254;2023-06-22T09:15:23;93040.75;;;26.41
79228;BMP280;68658;46.174;11.254;2023-06-22T09:17:48;93044.72;;;26.40
79228;BMP280;68658;46.174;11.254;2023-06-22T09:20:14;93039.72;;;26.55
79228;BMP280;68658;46.174;11.254;2023-06-22T09:22:40;93040.59;;;26.78
79228;BMP280;68658;46.174;11.254;2023-06-22T09:25:06;93034.78;;;26.72
79228;BMP280;68658;46.174;11.254;2023-06-22T09:27:32;93037.44;;;26.82
79228;BMP280;68658;46.174;11.254;2023-06-22T09:29:58;93030.03;;;26.52
79228;BMP280;68658;46.174;11.254;2023-06-22T09:32:24;93032.69;;;26.61
79228;BMP280;68658;46.174;11.254;2023-06-22T09:34:50;93034.31;;;26.46
79228;BMP280;68658;46.174;11.254;2023-06-22T09:37:16;93032.47;;;26.39
79228;BMP280;68658;46.174;11.254;2023-06-22T09:39:41;93033.72;;;26.38
79228;BMP280;68658;46.174;11.254;2023-06-22T09:42:07;93034.06;;;26.23
79228;BMP280;68658;46.174;11.254;2023-06-22T09:44:33;93039.53;;;26.04
79228;BMP280;68658;46.174;11.254;2023-06-22T09:47:00;93034.72;;;25.83
79228;BMP280;68658;46.174;11.254;2023-06-22T09:49:25;93031.84;;;25.72
79228;BMP280;68658;46.174;11.254;2023-06-22T09:51:51;93030.16;;;25.86
79228;BMP280;68658;46.174;11.254;2023-06-22T09:54:20;93038.50;;;26.09
79228;BMP280;68658;46.174;11.254;2023-06-22T09:56:46;93027.75;;;26.49
79228;BMP280;68658;46.174;11.254;2023-06-22T09:59:11;93022.22;;;26.77
79228;BMP280;68658;46.174;11.254;2023-06-22T10:01:37;93020.53;;;26.72
79228;BMP280;68658;46.174;11.254;2023-06-22T10:04:05;93010.06;;;26.87
79228;BMP280;68658;46.174;11.254;2023-06-22T10:06:31;93007.34;;;26.87
79228;BMP280;68658;46.174;11.254;2023-06-22T10:08:57;93004.78;;;26.89
79228;BMP280;68658;46.174;11.254;2023-06-22T10:11:22;92999.53;;;27.33
79228;BMP280;68658;46.174;11.254;2023-06-22T10:13:54;92989.25;;;27.73
79228;BMP280;68658;46.174;11.254;2023-06-22T10:16:20;92993.44;;;27.65
79228;BMP280;68658;46.174;11.254;2023-06-22T10:18:45;92990.22;;;27.57
79228;BMP280;68658;46.174;11.254;2023-06-22T10:21:11;92999.63;;;27.77
79228;BMP280;68658;46.174;11.254;2023-06-22T10:23:36;92996.00;;;27.84
79228;BMP280;68658;46.174;11.254;2023-06-22T10:26:02;92999.41;;;27.84
79228;BMP280;68658;46.174;11.254;2023-06-22T10:28:27;92990.22;;;28.22
79228;BMP280;68658;46.174;11.254;2023-06-22T10:30:53;92983.88;;;28.28
79228;BMP280;68658;46.174;11.254;2023-06-22T10:33:18;92981.28;;;28.30
79228;BMP280;68658;46.174;11.254;2023-06-22T10:35:45;92975.75;;;28.51
79228;BMP280;68658;46.174;11.254;2023-06-22T10:38:11;92964.06;;;28.37
79228;BMP280;68658;46.174;11.254;2023-06-22T10:40:37;92973.72;;;28.40
79228;BMP280;68658;46.174;11.254;2023-06-22T10:43:04;92970.31;;;28.74
79228;BMP280;68658;46.174;11.254;2023-06-22T10:45:30;92973.25;;;28.67
79228;BMP280;68658;46.174;11.254;2023-06-22T10:47:55;92957.09;;;28.69
79228;BMP280;68658;46.174;11.254;2023-06-22T10:50:25;92958.03;;;28.96
79228;BMP280;68658;46.174;11.254;2023-06-22T10:52:50;92955.38;;;29.32
79228;BMP280;68658;46.174;11.254;2023-06-22T10:55:16;92947.31;;;28.75
79228;BMP280;68658;46.174;11.254;2023-06-22T10:57:42;92957.34;;;28.84
79228;BMP280;68658;46.174;11.254;2023-06-22T11:00:10;92949.09;;;29.30
79228;BMP280;68658;46.174;11.254;2023-06-22T11:02:36;92944.06;;;29.13
79228;BMP280;68658;46.174;11.254;2023-06-22T11:05:05;92940.31;;;29.54
79228;BMP280;68658;46.174;11.254;2023-06-22T11:07:31;92933.88;;;29.86
79228;BMP280;68658;46.174;11.254;2023-06-22T11:09:58;92929.97;;;29.64
79228;BMP280;68658;46.174;11.254;2023-06-22T11:12:23;92939.28;;;29.73
79228;BMP280;68658;46.174;11.254;2023-06-22T11:14:49;92935.06;;;29.58
79228;BMP280;68658;46.174;11.254;2023-06-22T11:17:17;92934.19;;;28.95
79228;BMP280;68658;46.174;11.254;2023-06-22T11:19:44;92933.94;;;28.91
79228;BMP280;68658;46.174;11.254;2023-06-22T11:22:10;92933.22;;;29.49
79228;BMP280;68658;46.174;11.254;2023-06-22T11:24:35;92926.38;;;29.98
79228;BMP280;68658;46.174;11.254;2023-06-22T11:27:01;92933.13;;;29.97
79228;BMP280;68658;46.174;11.254;2023-06-22T11:29:26;92906.38;;;30.18
79228;BMP280;68658;46.174;11.254;2023-06-22T11:31:52;92905.69;;;30.31
79228;BMP280;68658;46.174;11.254;2023-06-22T11:34:17;92908.34;;;30.43
79228;BMP280;68658;46.174;11.254;2023-06-22T11:36:47;92903.38;;;30.39
79228;BMP280;68658;46.174;11.254;2023-06-22T11:39:13;92896.84;;;30.84
79228;BMP280;68658;46.174;11.254;2023-06-22T11:41:40;92895.00;;;30.35
79228;BMP280;68658;46.174;11.254;2023-06-22T11:44:06;92895.13;;;30.37
79228;BMP280;68658;46.174;11.254;2023-06-22T11:46:32;92887.75;;;30.40
79228;BMP280;68658;46.174;11.254;2023-06-22T11:48:58;92884.97;;;30.64
79228;BMP280;68658;46.174;11.254;2023-06-22T11:51:23;92888.38;;;30.65
79228;BMP280;68658;46.174;11.254;2023-06-22T11:53:49;92876.69;;;30.63
79228;BMP280;68658;46.174;11.254;2023-06-22T11:56:15;92879.63;;;30.53
79228;BMP280;68658;46.174;11.254;2023-06-22T11:58:40;92873.34;;;30.37
79228;BMP280;68658;46.174;11.254;2023-06-22T12:01:06;92880.63;;;30.73
79228;BMP280;68658;46.174;11.254;2023-06-22T12:03:31;92869.31;;;30.92
79228;BMP280;68658;46.174;11.254;2023-06-22T12:05:59;92872.88;;;30.54
79228;BMP280;68658;46.174;11.254;2023-06-22T12:08:24;92867.28;;;30.79
79228;BMP280;68658;46.174;11.254;2023-06-22T12:10:50;92862.66;;;30.68
79228;BMP280;68658;46.174;11.254;2023-06-22T12:13:16;92862.16;;;30.71
79228;BMP280;68658;46.174;11.254;2023-06-22T12:15:41;92866.66;;;30.94
79228;BMP280;68658;46.174;11.254;2023-06-22T12:18:07;92857.91;;;30.95
79228;BMP280;68658;46.174;11.254;2023-06-22T12:20:33;92859.59;;;31.16
79228;BMP280;68658;46.174;11.254;2023-06-22T12:22:59;92853.81;;;31.23
79228;BMP280;68658;46.174;11.254;2023-06-22T12:25:25;92843.84;;;31.43
79228;BMP280;68658;46.174;11.254;2023-06-22T12:27:50;92846.03;;;31.18
79228;BMP280;68658;46.174;11.254;2023-06-22T12:30:16;92845.38;;;31.33
79228;BMP280;68658;46.174;11.254;2023-06-22T12:32:41;92841.34;;;31.34
79228;BMP280;68658;46.174;11.254;2023-06-22T12:35:07;92847.69;;;30.96
79228;BMP280;68658;46.174;11.254;2023-06-22T12:37:39;92841.09;;;31.14
79228;BMP280;68658;46.174;11.254;2023-06-22T12:40:07;92838.53;;;31.32
79228;BMP280;68658;46.174;11.254;2023-06-22T12:42:33;92836.94;;;31.27
79228;BMP280;68658;46.174;11.254;2023-06-22T12:44:58;92844.06;;;31.34
79228;BMP280;68658;46.174;11.254;2023-06-22T12:47:24;92833.91;;;31.34
79228;BMP280;68658;46.174;11.254;2023-06-22T12:49:49;92836.53;;;31.47
79228;BMP280;68658;46.174;11.254;2023-06-22T12:52:15;92834.63;;;31.79
79228;BMP280;68658;46.174;11.254;2023-06-22T12:54:40;92824.06;;;32.18
79228;BMP280;68658;46.174;11.254;2023-06-22T12:57:06;92818.78;;;32.06
79228;BMP280;68658;46.174;11.254;2023-06-22T12:59:32;92822.31;;;32.24
79228;BMP280;68658;46.174;11.254;2023-06-22T13:01:57;92815.22;;;32.65
79228;BMP280;68658;46.174;11.254;2023-06-22T13:04:23;92808.97;;;32.96
79228;BMP280;68658;46.174;11.254;2023-06-22T13:06:48;92807.59;;;32.79
79228;BMP280;68658;46.174;11.254;2023-06-22T13:09:15;92807.41;;;32.91
79228;BMP280;68658;46.174;11.254;2023-06-22T13:11:41;92796.22;;;33.35
79228;BMP280;68658;46.174;11.254;2023-06-22T13:14:07;92803.25;;;33.57
79228;BMP280;68658;46.174;11.254;2023-06-22T13:16:32;92800.97;;;33.52
79228;BMP280;68658;46.174;11.254;2023-06-22T13:18:58;92802.53;;;33.39
79228;BMP280;68658;46.174;11.254;2023-06-22T13:21:24;92815.72;;;33.27
79228;BMP280;68658;46.174;11.254;2023-06-22T13:23:49;92800.75;;;33.11
79228;BMP280;68658;46.174;11.254;2023-06-22T13:26:15;92795.91;;;33.09
79228;BMP280;68658;46.174;11.254;2023-06-22T13:28:40;92800.84;;;32.98
79228;BMP280;68658;46.174;11.254;2023-06-22T13:31:06;92794.81;;;32.84
79228;BMP280;68658;46.174;11.254;2023-06-22T13:33:31;92791.97;;;33.49
79228;BMP280;68658;46.174;11.254;2023-06-22T13:35:56;92784.19;;;33.59
79228;BMP280;68658;46.174;11.254;2023-06-22T13:38:22;92784.00;;;33.20
79228;BMP280;68658;46.174;11.254;2023-06-22T13:40:48;92791.66;;;33.06
79228;BMP280;68658;46.174;11.254;2023-06-22T13:43:14;92801.38;;;33.09
79228;BMP280;68658;46.174;11.254;2023-06-22T13:45:41;92798.16;;;33.15
79228;BMP280;68658;46.174;11.254;2023-06-22T13:48:07;92777.78;;;32.85
79228;BMP280;68658;46.174;11.254;2023-06-22T13:50:32;92790.03;;;33.34
79228;BMP280;68658;46.174;11.254;2023-06-22T13:52:58;92797.69;;;33.38
79228;BMP280;68658;46.174;11.254;2023-06-22T13:55:23;92793.38;;;33.50
79228;BMP280;68658;46.174;11.254;2023-06-22T13:57:49;92786.50;;;34.03
79228;BMP280;68658;46.174;11.254;2023-06-22T14:00:16;92779.78;;;34.26
79228;BMP280;68658;46.174;11.254;2023-06-22T14:02:42;92783.94;;;33.71
79228;BMP280;68658;46.174;11.254;2023-06-22T14:05:08;92782.44;;;33.50